| Date | Time | Temp. (oF) | Dew Point (oF) | Rel. Hum. (%) | Press. (in.) | Wind Dir. | Wind Speed (mph) | Hourly Rainfall (in.) |
|
|---|---|---|---|---|---|---|---|---|---|
| 1 | 10/12 | 00:00 | 49 | 44 | 85 | 29.82 | SSW | 0 | 0.00 |
| 2 | 10/11 | 23:00 | 50 | 44 | 82 | 29.83 | SSW | 0 | 0.00 |
| 3 | 10/11 | 22:00 | 52 | 46 | 80 | 29.83 | SW | 0 | 0.00 |
| 4 | 10/11 | 21:00 | 53 | 45 | 76 | 29.82 | SSW | 0 | 0.00 |
| 5 | 10/11 | 20:00 | 56 | 45 | 69 | 29.81 | S | 0 | 0.00 |
| 6 | 10/11 | 19:00 | 61 | 45 | 56 | 29.80 | SSW | 0 | 0.00 |
| 7 | 10/11 | 18:00 | 69 | 42 | 39 | 29.79 | WSW | 3 | 0.00 |
| 8 | 10/11 | 17:00 | 69 | 42 | 38 | 29.79 | SW | 2 | 0.00 |
| 9 | 10/11 | 16:00 | 70 | 45 | 41 | 29.80 | WSW | 2 | 0.00 |
| 10 | 10/11 | 15:00 | 68 | 45 | 44 | 29.81 | SW | 4 | 0.00 |
| 11 | 10/11 | 14:00 | 67 | 44 | 45 | 29.86 | SSW | 3 | 0.00 |
| 12 | 10/11 | 13:00 | 65 | 44 | 48 | 29.90 | W | 10 | 0.00 |
| 13 | 10/11 | 12:00 | 63 | 46 | 56 | 29.94 | WNW | 6 | 0.00 |
| 14 | 10/11 | 11:00 | 58 | 46 | 66 | 29.97 | NE | 5 | 0.00 |
| 15 | 10/11 | 10:00 | 53 | 49 | 88 | 29.97 | S | 0 | 0.00 |
| 16 | 10/11 | 09:00 | 45 | 42 | 90 | 29.98 | S | 0 | 0.00 |
| 17 | 10/11 | 08:00 | 39 | 36 | 91 | 29.98 | SSW | 0 | 0.00 |
| 18 | 10/11 | 07:00 | 39 | 36 | 91 | 29.96 | NE | 0 | 0.00 |
| 19 | 10/11 | 06:00 | 39 | 36 | 91 | 29.95 | SSW | 0 | 0.00 |
| 20 | 10/11 | 05:00 | 40 | 37 | 90 | 29.94 | NNE | 0 | 0.00 |
| 21 | 10/11 | 04:00 | 41 | 38 | 90 | 29.96 | NNE | 0 | 0.00 |
| 22 | 10/11 | 03:00 | 42 | 38 | 89 | 29.97 | N | 0 | 0.00 |
| 23 | 10/11 | 02:00 | 42 | 38 | 88 | 29.99 | SW | 0 | 0.00 |
| 24 | 10/11 | 01:00 | 44 | 40 | 88 | 29.99 | SSW | 0 | 0.00 |